Time;durP1;ratioP1;P1;durP2;ratioP2;P2;SDS_P1;SDS_P2;PMS_P1;PMS_P2;Temp;Humidity;BMP_temperature;BMP_pressure;BME280_temperature;BME280_humidity;BME280_pressure;Samples;Min_cycle;Max_cycle;Signal;HPM_P1;HPM_P2
2023/04/20 00:00:10;;;;;;;;;;;;;;;8.23;80.30;101606.03;4173731;28;20449;-68
2023/04/20 00:02:15;;;;;;;;;;;;;;;8.24;80.25;101610.41;4172566;28;20020;-67
2023/04/20 00:04:17;;;;;;;;;;;;;;;8.22;79.91;101614.25;4172922;28;20023;-67
2023/04/20 00:06:21;;;;;;;;;;;;;;;8.23;79.93;101618.66;4173344;28;20020;-68
2023/04/20 00:08:23;;;;;;;;;;;;;;;8.23;80.28;101619.50;4173393;28;19964;-68
2023/04/20 00:10:25;;;;;;;;;;;;;;;8.26;80.02;101619.22;4173006;28;20015;-67
2023/04/20 00:12:28;;;;;;;;;;;;;;;8.26;79.84;101621.91;4172965;28;20032;-68
2023/04/20 00:14:30;;;;;;;;;;;;;;;8.25;79.90;101611.28;4173127;28;20028;-67
2023/04/20 00:16:32;;;;;;;;;;;;;;;8.24;79.95;101614.97;4173137;28;20008;-67
2023/04/20 00:18:34;;;;;;;;;;;;;;;8.21;80.02;101605.34;4172269;28;20028;-67
2023/04/20 00:20:37;;;;;;;;;;;;;;;8.22;80.08;101604.34;4172648;28;20596;-67
2023/04/20 00:22:40;;;;;;;;;;;;;;;8.20;80.03;101609.03;4172885;28;20007;-68
2023/04/20 00:24:42;;;;;;;;;;;;;;;8.20;80.01;101600.94;4172979;28;20011;-68
2023/04/20 00:26:44;;;;;;;;;;;;;;;8.20;80.00;101602.78;4172427;28;20474;-67
2023/04/20 00:28:46;;;;;;;;;;;;;;;8.22;79.96;101596.25;4173121;28;20039;-67
2023/04/20 00:30:49;;;;;;;;;;;;;;;8.24;79.97;101599.66;4172318;28;20016;-68
2023/04/20 00:32:51;;;;;;;;;;;;;;;8.22;79.70;101601.66;4172551;28;20019;-68
2023/04/20 00:34:53;;;;;;;;;;;;;;;8.19;79.89;101596.53;4172235;28;20059;-68
2023/04/20 00:36:55;;;;;;;;;;;;;;;8.20;80.18;101600.09;4173092;28;20048;-68
2023/04/20 00:39:00;;;;;;;;;;;;;;;8.20;80.09;101590.19;4172461;28;20024;-68
2023/04/20 00:41:03;;;;;;;;;;;;;;;8.20;80.11;101589.34;4188223;28;20295;-68
2023/04/20 00:43:12;;;;;;;;;;;;;;;8.18;80.07;101591.31;4171104;28;20032;-68
2023/04/20 00:45:14;;;;;;;;;;;;;;;8.17;79.86;101589.63;4171087;28;20016;-67
2023/04/20 00:47:16;;;;;;;;;;;;;;;8.15;79.97;101591.59;4172790;28;20024;-67
2023/04/20 00:49:19;;;;;;;;;;;;;;;8.12;79.65;101592.72;4171414;28;20438;-68
2023/04/20 00:51:23;;;;;;;;;;;;;;;8.11;79.98;101604.47;4172133;28;20020;-67
2023/04/20 00:53:25;;;;;;;;;;;;;;;8.11;80.02;101599.09;4171109;28;20020;-67
2023/04/20 00:55:28;;;;;;;;;;;;;;;8.11;79.80;101597.25;4173292;28;20028;-68
2023/04/20 00:57:30;;;;;;;;;;;;;;;8.11;80.02;101597.25;4170049;28;20028;-67
2023/04/20 00:59:32;;;;;;;;;;;;;;;8.11;79.87;101582.94;4171292;28;20019;-67
2023/04/20 01:01:34;;;;;;;;;;;;;;;8.08;79.73;101578.69;4171899;28;20441;-67
2023/04/20 01:03:37;;;;;;;;;;;;;;;8.07;80.08;101587.78;4170918;28;20023;-67
2023/04/20 01:05:39;;;;;;;;;;;;;;;8.06;79.72;101580.69;4154582;28;20008;-67
2023/04/20 01:07:41;;;;;;;;;;;;;;;8.04;79.77;101588.03;4172897;28;20019;-67
2023/04/20 01:09:43;;;;;;;;;;;;;;;8.04;79.55;101589.88;4172534;28;20027;-68
2023/04/20 01:11:46;;;;;;;;;;;;;;;8.01;79.89;101601.78;4170432;28;20016;-68
2023/04/20 01:13:51;;;;;;;;;;;;;;;7.99;79.97;101592.13;4170383;28;20024;-68
2023/04/20 01:15:53;;;;;;;;;;;;;;;7.96;80.02;101590.56;4171218;28;20020;-68
2023/04/20 01:17:56;;;;;;;;;;;;;;;7.97;80.12;101597.66;4171382;28;20016;-68
2023/04/20 01:19:59;;;;;;;;;;;;;;;7.97;80.11;101600.34;4171841;28;20012;-68
2023/04/20 01:22:03;;;;;;;;;;;;;;;7.98;80.25;101601.19;4187075;28;19941;-68
2023/04/20 01:24:06;;;;;;;;;;;;;;;7.99;79.96;101598.34;4172176;28;20011;-68
2023/04/20 01:26:09;;;;;;;;;;;;;;;8.01;80.52;101600.91;4171226;28;20027;-68
2023/04/20 01:28:13;;;;;;;;;;;;;;;8.01;80.13;101593.72;4170829;28;20023;-67
2023/04/20 01:30:16;;;;;;;;;;;;;;;8.00;80.03;101592.00;4168787;28;20458;-68
2023/04/20 01:32:18;;;;;;;;;;;;;;;7.98;80.44;101591.28;4170943;28;20373;-68
2023/04/20 01:34:20;;;;;;;;;;;;;;;7.96;80.26;101590.56;4171419;28;20059;-68
2023/04/20 01:36:22;;;;;;;;;;;;;;;7.94;80.71;101582.63;4170436;28;20011;-68
2023/04/20 01:38:25;;;;;;;;;;;;;;;7.93;80.77;101585.47;4171816;28;20028;-68
2023/04/20 01:40:29;;;;;;;;;;;;;;;7.93;80.93;101589.03;4170668;28;20016;-68
2023/04/20 01:42:34;;;;;;;;;;;;;;;7.97;80.95;101583.38;4171498;28;19929;-68
2023/04/20 01:44:36;;;;;;;;;;;;;;;7.99;80.48;101579.53;4169928;28;20024;-68
2023/04/20 01:46:38;;;;;;;;;;;;;;;8.00;79.98;101583.09;4170394;28;20405;-68
2023/04/20 01:48:42;;;;;;;;;;;;;;;8.02;80.17;101570.34;4171957;28;19988;-68
2023/04/20 01:50:44;;;;;;;;;;;;;;;8.01;79.93;101584.75;4170068;28;20032;-68
2023/04/20 01:52:48;;;;;;;;;;;;;;;8.01;80.08;101590.16;4171709;28;20059;-68
2023/04/20 01:54:52;;;;;;;;;;;;;;;7.99;80.30;101581.38;4162217;28;20112;-68
2023/04/20 01:56:56;;;;;;;;;;;;;;;8.00;80.37;101583.91;4171934;28;20016;-68
2023/04/20 01:58:58;;;;;;;;;;;;;;;7.98;80.54;101590.41;4168595;28;20415;-68
2023/04/20 02:01:02;;;;;;;;;;;;;;;7.97;80.40;101589.59;4169141;28;20020;-68
2023/04/20 02:03:04;;;;;;;;;;;;;;;7.96;80.39;101593.25;4167484;28;20395;-68
2023/04/20 02:05:07;;;;;;;;;;;;;;;7.97;80.09;101586.06;4169329;28;20015;-68
2023/04/20 02:07:09;;;;;;;;;;;;;;;7.96;80.36;101590.56;4171361;28;20556;-68
2023/04/20 02:09:14;;;;;;;;;;;;;;;7.95;80.16;101599.63;4169959;28;20016;-68
2023/04/20 02:11:16;;;;;;;;;;;;;;;7.96;80.40;101595.09;4169534;28;20024;-68
2023/04/20 02:13:21;;;;;;;;;;;;;;;7.94;80.01;101596.06;4169947;28;20359;-68
2023/04/20 02:15:23;;;;;;;;;;;;;;;7.89;80.20;101592.13;4168332;28;20027;-68
2023/04/20 02:17:25;;;;;;;;;;;;;;;7.83;80.48;101593.50;4178536;28;20383;-68
2023/04/20 02:19:28;;;;;;;;;;;;;;;7.81;80.70;101595.50;4170936;28;20028;-68
2023/04/20 02:21:30;;;;;;;;;;;;;;;7.83;80.72;101598.06;4171738;28;20390;-68
2023/04/20 02:23:32;;;;;;;;;;;;;;;7.85;80.60;101596.06;4168763;28;20392;-68
2023/04/20 02:25:34;;;;;;;;;;;;;;;7.84;80.75;101599.75;4168184;28;20023;-68
2023/04/20 02:27:36;;;;;;;;;;;;;;;7.83;80.80;101598.06;4170645;28;20140;-68
2023/04/20 02:29:41;;;;;;;;;;;;;;;7.81;80.81;101598.19;4185802;28;20369;-68
2023/04/20 02:31:43;;;;;;;;;;;;;;;7.80;80.85;101587.56;4167482;28;20043;-68
2023/04/20 02:33:48;;;;;;;;;;;;;;;7.82;80.65;101596.34;4185366;28;20466;-68
2023/04/20 02:36:05;;;;;;;;;;;;;;;7.85;80.80;101602.31;4170707;28;20364;-69
2023/04/20 02:38:08;;;;;;;;;;;;;;;7.84;80.66;101594.38;4170724;28;20452;-68
2023/04/20 02:40:10;;;;;;;;;;;;;;;7.82;80.72;101585.59;4170011;28;20429;-68
2023/04/20 02:42:12;;;;;;;;;;;;;;;7.81;80.52;101587.44;4170467;28;20031;-68
2023/04/20 02:44:16;;;;;;;;;;;;;;;7.78;80.67;101590.41;4168806;28;19932;-68
2023/04/20 02:46:20;;;;;;;;;;;;;;;7.74;81.08;101591.66;4170004;28;20012;-68
2023/04/20 02:48:23;;;;;;;;;;;;;;;7.74;80.97;101592.53;4184505;28;20019;-68
2023/04/20 02:50:25;;;;;;;;;;;;;;;7.74;81.11;101594.34;4170494;28;20020;-68
2023/04/20 02:52:40;;;;;;;;;;;;;;;7.75;81.31;101594.19;4168923;28;20027;-68
2023/04/20 02:54:46;;;;;;;;;;;;;;;7.78;81.21;101593.09;4177810;28;19924;-68
2023/04/20 02:56:48;;;;;;;;;;;;;;;7.77;81.16;101602.13;4169603;28;20023;-68
2023/04/20 02:58:51;;;;;;;;;;;;;;;7.76;81.17;101595.06;4177423;28;20015;-68
2023/04/20 03:01:01;;;;;;;;;;;;;;;7.77;80.88;101591.38;4168445;28;19933;-68
2023/04/20 03:03:09;;;;;;;;;;;;;;;7.76;81.05;101595.91;4184915;28;19925;-68
2023/04/20 03:05:12;;;;;;;;;;;;;;;7.79;81.24;101596.63;4168858;28;20471;-68
2023/04/20 03:07:18;;;;;;;;;;;;;;;7.80;81.00;101601.00;4169660;28;19961;-68
2023/04/20 03:09:24;;;;;;;;;;;;;;;7.80;81.14;101591.09;4169456;28;19992;-69
2023/04/20 03:11:35;;;;;;;;;;;;;;;7.83;81.08;101589.97;4168509;28;20008;-68
2023/04/20 03:13:39;;;;;;;;;;;;;;;7.85;80.97;101588.00;4169194;28;20023;-67
2023/04/20 03:15:43;;;;;;;;;;;;;;;7.85;80.97;101590.69;4170127;28;20033;-68
2023/04/20 03:18:10;;;;;;;;;;;;;;;7.88;80.68;101595.78;4160072;28;19957;-67
2023/04/20 03:20:14;;;;;;;;;;;;;;;7.90;81.11;101589.28;4177732;28;20394;-67
2023/04/20 03:22:18;;;;;;;;;;;;;;;7.89;80.55;101595.66;4170202;28;20028;-67
2023/04/20 03:24:23;;;;;;;;;;;;;;;7.92;80.66;101602.59;4168637;28;19979;-68
2023/04/20 03:26:27;;;;;;;;;;;;;;;7.94;80.64;101606.84;4169474;28;19952;-67
2023/04/20 03:28:54;;;;;;;;;;;;;;;7.94;80.75;101598.78;4169500;28;20036;-68
2023/04/20 03:31:00;;;;;;;;;;;;;;;7.94;80.60;101598.78;4169271;28;19967;-67
2023/04/20 03:33:11;;;;;;;;;;;;;;;7.92;80.59;101603.44;4169062;28;20020;-68
2023/04/20 03:35:13;;;;;;;;;;;;;;;7.92;80.73;101606.13;4171024;28;20353;-68
2023/04/20 03:37:18;;;;;;;;;;;;;;;7.89;80.87;101608.25;4169875;28;20409;-67
2023/04/20 03:39:22;;;;;;;;;;;;;;;7.87;80.93;101611.09;4170097;28;19975;-68
2023/04/20 03:41:25;;;;;;;;;;;;;;;7.84;80.68;101607.84;4169664;28;20051;-67
2023/04/20 03:49:45;;;;;;;;;;;;;;;7.75;81.52;101609.50;4954959;23;19931;-68
2023/04/20 03:51:47;;;;;;;;;;;;;;;7.72;81.69;101605.22;4116327;28;19981;-68
2023/04/20 03:53:50;;;;;;;;;;;;;;;7.71;81.49;101600.88;4119669;28;20024;-69
2023/04/20 03:55:52;;;;;;;;;;;;;;;7.70;81.71;101606.38;4103598;28;20464;-68
2023/04/20 03:57:56;;;;;;;;;;;;;;;7.70;81.66;101607.22;4120885;28;20009;-69
2023/04/20 03:59:59;;;;;;;;;;;;;;;7.73;82.02;101608.78;4089176;28;20032;-68
2023/04/20 04:02:09;;;;;;;;;;;;;;;7.71;82.07;101611.63;4105794;28;20022;-69
2023/04/20 04:04:12;;;;;;;;;;;;;;;7.71;81.76;101608.06;4088083;29;20112;-68
2023/04/20 04:06:15;;;;;;;;;;;;;;;7.70;82.24;101612.59;4103724;28;20025;-68
2023/04/20 04:08:18;;;;;;;;;;;;;;;7.68;82.22;101601.13;4088087;28;20029;-68
2023/04/20 04:10:20;;;;;;;;;;;;;;;7.65;82.13;101612.16;4087437;29;20025;-68
2023/04/20 04:12:23;;;;;;;;;;;;;;;7.67;82.60;101612.03;4073104;29;19938;-68
2023/04/20 04:14:26;;;;;;;;;;;;;;;7.65;82.35;101625.59;4101368;28;20040;-68
2023/04/20 04:16:28;;;;;;;;;;;;;;;7.65;82.30;101614.84;4089109;28;19938;-68
2023/04/20 04:18:31;;;;;;;;;;;;;;;7.62;82.34;101625.00;4105031;28;20041;-68
2023/04/20 04:20:35;;;;;;;;;;;;;;;7.61;82.67;101626.00;4088563;28;20504;-68
2023/04/20 04:22:39;;;;;;;;;;;;;;;7.58;82.94;101629.81;4103418;28;20021;-68
2023/04/20 04:24:59;;;;;;;;;;;;;;;7.54;82.87;101623.03;4103711;28;20559;-68
2023/04/20 04:27:04;;;;;;;;;;;;;;;7.52;82.93;101625.84;4086739;29;20017;-68
2023/04/20 04:29:07;;;;;;;;;;;;;;;7.49;83.57;101630.63;4086740;28;20017;-68
2023/04/20 04:31:10;;;;;;;;;;;;;;;7.47;83.65;101630.75;4097932;28;20576;-68
2023/04/20 04:33:13;;;;;;;;;;;;;;;7.43;83.86;101626.66;4085433;29;20429;-68
2023/04/20 04:35:17;;;;;;;;;;;;;;;7.39;84.06;101627.91;4087752;29;20480;-68
2023/04/20 04:37:19;;;;;;;;;;;;;;;7.43;84.21;101628.47;4088390;28;20060;-68
2023/04/20 04:39:29;;;;;;;;;;;;;;;7.43;84.13;101625.78;4105564;28;20009;-68
2023/04/20 04:41:41;;;;;;;;;;;;;;;7.40;83.88;101634.97;4106398;28;20021;-68
2023/04/20 04:43:53;;;;;;;;;;;;;;;7.37;84.07;101641.47;4074490;29;20037;-68
2023/04/20 04:46:06;;;;;;;;;;;;;;;7.37;84.56;101648.69;4090411;29;20017;-67
2023/04/20 04:48:10;;;;;;;;;;;;;;;7.36;84.68;101649.66;4089255;29;20021;-68
2023/04/20 04:50:12;;;;;;;;;;;;;;;7.38;84.80;101653.06;4087813;28;20025;-67
2023/04/20 04:52:15;;;;;;;;;;;;;;;7.39;84.82;101654.78;4090857;28;20018;-67
2023/04/20 04:54:16;;;;;;;;;;;;;;;7.42;84.69;101648.28;4106993;28;20461;-68
2023/04/20 04:56:20;;;;;;;;;;;;;;;7.42;84.44;101645.59;4106380;28;20021;-67
2023/04/20 04:58:22;;;;;;;;;;;;;;;7.43;84.73;101634.72;4106078;28;20029;-68
2023/04/20 05:00:25;;;;;;;;;;;;;;;7.43;84.03;101632.03;4107640;28;20365;-68
2023/04/20 05:02:27;;;;;;;;;;;;;;;7.46;83.99;101629.06;4101820;28;20026;-67
2023/04/20 05:04:29;;;;;;;;;;;;;;;7.47;83.41;101637.97;4102285;28;20029;-68
2023/04/20 05:06:31;;;;;;;;;;;;;;;7.43;83.30;101645.47;4106599;28;20029;-68
2023/04/20 05:08:36;;;;;;;;;;;;;;;7.43;83.06;101655.34;4106698;28;20013;-67
2023/04/20 05:10:38;;;;;;;;;;;;;;;7.42;83.42;101653.66;4107050;28;20033;-68
2023/04/20 05:12:41;;;;;;;;;;;;;;;7.40;83.22;101656.50;4106439;28;20054;-67
2023/04/20 05:14:43;;;;;;;;;;;;;;;7.38;82.83;101655.75;4106907;28;20037;-68
2023/04/20 05:16:45;;;;;;;;;;;;;;;7.36;82.92;101658.56;4106877;28;20009;-68
2023/04/20 05:18:47;;;;;;;;;;;;;;;7.37;83.27;101656.75;4104862;28;20189;-68
2023/04/20 05:20:49;;;;;;;;;;;;;;;7.39;83.07;101650.25;4057791;29;20054;-67
2023/04/20 05:22:51;;;;;;;;;;;;;;;7.37;82.68;101646.84;4104462;28;20025;-68
2023/04/20 05:24:53;;;;;;;;;;;;;;;7.37;82.53;101649.53;4087523;29;20029;-68
2023/04/20 05:26:55;;;;;;;;;;;;;;;7.36;82.50;101652.34;4106297;28;20030;-68
2023/04/20 05:28:59;;;;;;;;;;;;;;;7.36;82.58;101655.88;4106045;28;20477;-67
2023/04/20 05:31:01;;;;;;;;;;;;;;;7.31;82.36;101651.91;4106588;28;20030;-68
2023/04/20 05:33:03;;;;;;;;;;;;;;;7.31;82.07;101660.81;4106615;28;20016;-67
2023/04/20 05:35:06;;;;;;;;;;;;;;;7.28;82.27;101663.75;4107030;28;19930;-67
2023/04/20 05:37:08;;;;;;;;;;;;;;;7.27;82.39;101659.38;4106653;28;20025;-67
2023/04/20 05:39:10;;;;;;;;;;;;;;;7.26;82.56;101663.06;4107121;28;20018;-68
2023/04/20 05:41:12;;;;;;;;;;;;;;;7.22;82.65;101662.47;4107044;28;20012;-68
2023/04/20 05:43:16;;;;;;;;;;;;;;;7.26;82.78;101664.88;4107190;28;20028;-68
2023/04/20 05:45:19;;;;;;;;;;;;;;;7.29;82.82;101661.91;4106157;28;20030;-67
2023/04/20 05:47:21;;;;;;;;;;;;;;;7.29;82.58;101665.47;4106331;28;20033;-70
2023/04/20 05:49:23;;;;;;;;;;;;;;;7.32;82.86;101661.66;4106745;28;20032;-68
2023/04/20 05:51:27;;;;;;;;;;;;;;;7.33;82.59;101666.91;4105177;28;20029;-68
2023/04/20 05:53:29;;;;;;;;;;;;;;;7.33;82.19;101666.06;4106100;28;19980;-68
2023/04/20 05:55:32;;;;;;;;;;;;;;;7.28;81.95;101655.69;4107124;28;19931;-68
2023/04/20 05:57:39;;;;;;;;;;;;;;;7.28;81.67;101661.06;4106712;28;20017;-68
2023/04/20 05:59:41;;;;;;;;;;;;;;;7.28;81.85;101662.91;4106661;28;20034;-68
2023/04/20 06:01:46;;;;;;;;;;;;;;;7.27;81.62;101671.97;4105414;28;20013;-67
2023/04/20 06:03:48;;;;;;;;;;;;;;;7.27;82.14;101675.47;4099681;28;20029;-68
2023/04/20 06:05:51;;;;;;;;;;;;;;;7.24;82.05;101672.22;4103987;28;20669;-68
2023/04/20 06:07:53;;;;;;;;;;;;;;;7.29;82.38;101672.66;4099542;28;20041;-68
2023/04/20 06:09:55;;;;;;;;;;;;;;;7.31;82.48;101676.09;4105730;28;20025;-68
2023/04/20 06:11:57;;;;;;;;;;;;;;;7.34;82.22;101682.03;4104715;28;20032;-68
2023/04/20 06:13:59;;;;;;;;;;;;;;;7.36;81.93;101684.59;4106499;28;20017;-68
2023/04/20 06:16:01;;;;;;;;;;;;;;;7.38;81.81;101682.63;4106283;28;20046;-68
2023/04/20 06:18:05;;;;;;;;;;;;;;;7.36;81.37;101684.59;4106649;28;20626;-68
2023/04/20 06:20:08;;;;;;;;;;;;;;;7.37;81.72;101676.41;4105538;28;20034;-68
2023/04/20 06:22:10;;;;;;;;;;;;;;;7.39;81.65;101684.34;4105872;28;20025;-68
2023/04/20 06:24:12;;;;;;;;;;;;;;;7.42;82.14;101693.97;4106012;28;20021;-68
2023/04/20 06:26:14;;;;;;;;;;;;;;;7.44;81.61;101692.00;4106159;28;20021;-68
2023/04/20 06:28:16;;;;;;;;;;;;;;;7.41;81.33;101690.41;4105679;28;20013;-68
2023/04/20 06:30:18;;;;;;;;;;;;;;;7.40;80.96;101688.75;4089170;29;20029;-67
2023/04/20 06:32:20;;;;;;;;;;;;;;;7.43;81.24;101692.97;4106099;28;20009;-68
2023/04/20 06:34:25;;;;;;;;;;;;;;;7.45;81.56;101688.34;4106001;28;20025;-68
2023/04/20 06:36:27;;;;;;;;;;;;;;;7.47;81.47;101699.81;4106544;28;20464;-68
2023/04/20 06:38:29;;;;;;;;;;;;;;;7.49;81.28;101689.75;4105680;28;20022;-68
2023/04/20 06:40:32;;;;;;;;;;;;;;;7.51;81.18;101696.72;4104729;28;20037;-68
2023/04/20 06:42:34;;;;;;;;;;;;;;;7.52;81.18;101693.06;4105185;28;20020;-68
2023/04/20 06:44:37;;;;;;;;;;;;;;;7.53;81.09;101694.72;4065104;29;20034;-68
2023/04/20 06:46:39;;;;;;;;;;;;;;;7.54;81.29;101696.44;4106200;28;20016;-68
2023/04/20 06:48:41;;;;;;;;;;;;;;;7.57;81.18;101695.34;4105988;28;20009;-68
2023/04/20 06:50:45;;;;;;;;;;;;;;;7.60;81.20;101694.19;4104881;28;20028;-68
2023/04/20 06:52:47;;;;;;;;;;;;;;;7.63;81.08;101688.56;4105018;28;20026;-68
2023/04/20 06:54:49;;;;;;;;;;;;;;;7.65;81.11;101686.56;4105541;28;20009;-68
2023/04/20 06:56:51;;;;;;;;;;;;;;;7.69;81.10;101682.63;4105449;28;20577;-68
2023/04/20 06:58:53;;;;;;;;;;;;;;;7.69;81.32;101691.56;4105915;28;20029;-68
2023/04/20 07:00:55;;;;;;;;;;;;;;;7.68;80.97;101694.38;4105081;28;20013;-68
2023/04/20 07:02:57;;;;;;;;;;;;;;;7.68;80.97;101697.94;4104890;28;20021;-68
2023/04/20 07:05:02;;;;;;;;;;;;;;;7.70;81.28;101700.50;4103862;28;20017;-68
2023/04/20 07:07:06;;;;;;;;;;;;;;;7.67;81.03;101700.75;4085415;29;20414;-68
2023/04/20 07:09:08;;;;;;;;;;;;;;;7.63;81.12;101708.22;4104856;28;20448;-68
2023/04/20 07:11:10;;;;;;;;;;;;;;;7.63;81.28;101702.84;4105036;28;20030;-68
2023/04/20 07:13:12;;;;;;;;;;;;;;;7.66;81.37;101701.72;4105544;28;20026;-68
2023/04/20 07:15:14;;;;;;;;;;;;;;;7.67;81.57;101706.13;4105634;28;20013;-68
2023/04/20 07:17:16;;;;;;;;;;;;;;;7.67;81.69;101706.97;4105308;28;20017;-68
2023/04/20 07:19:18;;;;;;;;;;;;;;;7.68;82.07;101710.50;4105360;28;20021;-68
2023/04/20 07:21:22;;;;;;;;;;;;;;;7.69;81.79;101712.22;4105621;28;20029;-68
2023/04/20 07:23:27;;;;;;;;;;;;;;;7.70;81.76;101719.31;4105442;28;19966;-68
2023/04/20 07:25:30;;;;;;;;;;;;;;;7.69;81.60;101706.84;4105523;28;20012;-68
2023/04/20 07:27:34;;;;;;;;;;;;;;;7.68;81.55;101714.06;4106249;28;20017;-68
2023/04/20 07:29:36;;;;;;;;;;;;;;;7.69;82.03;101717.59;4105507;28;20032;-68
2023/04/20 07:31:38;;;;;;;;;;;;;;;7.69;81.97;101718.44;4105373;28;20017;-68
2023/04/20 07:33:40;;;;;;;;;;;;;;;7.70;82.04;101716.63;4104752;28;20025;-68
2023/04/20 07:35:42;;;;;;;;;;;;;;;7.69;81.94;101717.59;4105724;28;20826;-68
2023/04/20 07:37:44;;;;;;;;;;;;;;;7.71;82.19;101713.81;4104984;28;19933;-68
2023/04/20 07:39:48;;;;;;;;;;;;;;;7.71;81.73;101713.81;4088568;28;20017;-68
2023/04/20 07:41:50;;;;;;;;;;;;;;;7.71;82.21;101716.50;4104823;28;20013;-68
2023/04/20 07:43:52;;;;;;;;;;;;;;;7.73;82.35;101711.81;4105535;28;20020;-68
2023/04/20 07:45:54;;;;;;;;;;;;;;;7.72;81.76;101715.47;4105290;28;20025;-68
2023/04/20 07:47:56;;;;;;;;;;;;;;;7.73;82.07;101710.97;4103037;28;20010;-68
2023/04/20 07:49:58;;;;;;;;;;;;;;;7.75;82.27;101723.28;4104102;28;20030;-68
2023/04/20 07:52:00;;;;;;;;;;;;;;;7.77;81.49;101725.84;4105044;28;20021;-68
2023/04/20 07:54:02;;;;;;;;;;;;;;;7.81;81.98;101723.75;4087853;29;20014;-68
2023/04/20 07:56:06;;;;;;;;;;;;;;;7.81;81.63;101724.59;4088295;29;20025;-68
2023/04/20 07:58:08;;;;;;;;;;;;;;;7.81;81.63;101719.22;4104671;28;20022;-68
2023/04/20 08:00:11;;;;;;;;;;;;;;;7.84;81.37;101729.72;4105119;28;20032;-68
2023/04/20 08:02:17;;;;;;;;;;;;;;;7.87;81.83;101728.59;4102557;28;20026;-68
2023/04/20 08:04:19;;;;;;;;;;;;;;;7.90;81.72;101726.47;4105107;28;20037;-68
2023/04/20 08:06:21;;;;;;;;;;;;;;;7.93;81.16;101723.50;4105186;28;20363;-68
2023/04/20 08:08:22;;;;;;;;;;;;;;;7.95;81.32;101723.38;4105345;28;20033;-68
2023/04/20 08:10:24;;;;;;;;;;;;;;;8.00;81.51;101726.50;4105462;28;20061;-68
2023/04/20 08:12:29;;;;;;;;;;;;;;;8.05;81.41;101724.25;4104506;28;20009;-68
2023/04/20 08:14:32;;;;;;;;;;;;;;;8.10;81.25;101719.34;4108670;28;20017;-68
2023/04/20 08:16:34;;;;;;;;;;;;;;;8.15;81.28;101718.06;4108427;28;20024;-68
2023/04/20 08:18:36;;;;;;;;;;;;;;;8.18;80.56;101720.47;4107605;28;20396;-68
2023/04/20 08:20:38;;;;;;;;;;;;;;;8.20;80.22;101722.03;4107793;28;20013;-68
2023/04/20 08:22:40;;;;;;;;;;;;;;;8.24;80.23;101728.84;4107260;28;20053;-68
2023/04/20 08:24:44;;;;;;;;;;;;;;;8.27;79.86;101733.94;4108191;28;20017;-68
2023/04/20 08:26:46;;;;;;;;;;;;;;;8.30;79.68;101735.53;4107918;28;20009;-68
2023/04/20 08:28:49;;;;;;;;;;;;;;;8.32;79.42;101735.38;4108009;28;20073;-68
2023/04/20 08:30:53;;;;;;;;;;;;;;;8.34;79.00;101736.09;4108118;28;20030;-68
2023/04/20 08:32:55;;;;;;;;;;;;;;;8.33;78.26;101735.25;4107715;28;20440;-68
2023/04/20 08:34:56;;;;;;;;;;;;;;;8.33;78.28;101737.09;4105960;28;20009;-67
2023/04/20 08:36:58;;;;;;;;;;;;;;;8.31;78.12;101739.94;4107287;28;20040;-68
2023/04/20 08:39:06;;;;;;;;;;;;;;;8.27;77.65;101730.41;4107221;28;19926;-67
2023/04/20 08:41:10;;;;;;;;;;;;;;;8.25;77.66;101738.63;4107239;28;20025;-68
2023/04/20 08:43:12;;;;;;;;;;;;;;;8.25;78.09;101744.00;4107017;28;20013;-68
2023/04/20 08:45:15;;;;;;;;;;;;;;;8.25;77.88;101749.38;4107661;28;20024;-68
2023/04/20 08:47:17;;;;;;;;;;;;;;;8.26;78.40;101751.09;4107475;28;20480;-68
2023/04/20 08:49:19;;;;;;;;;;;;;;;8.27;78.31;101743.88;4089402;28;20426;-68
2023/04/20 08:51:21;;;;;;;;;;;;;;;8.26;78.55;101745.72;4106113;28;19965;-68
2023/04/20 08:53:26;;;;;;;;;;;;;;;8.27;78.79;101744.72;4106593;28;20017;-68
2023/04/20 08:55:28;;;;;;;;;;;;;;;8.28;79.17;101743.72;4090771;29;20100;-68
2023/04/20 08:57:30;;;;;;;;;;;;;;;8.28;79.23;101737.50;4107543;28;20024;-68
2023/04/20 08:59:32;;;;;;;;;;;;;;;8.27;79.61;101743.88;4107057;28;19927;-68
2023/04/20 09:01:40;;;;;;;;;;;;;;;8.27;79.58;101733.09;4107377;28;20033;-68
2023/04/20 09:03:42;;;;;;;;;;;;;;;8.26;79.99;101734.94;4107309;28;20017;-68
2023/04/20 09:05:45;;;;;;;;;;;;;;;8.27;80.06;101742.00;4107371;28;20029;-68
2023/04/20 09:07:51;;;;;;;;;;;;;;;8.28;80.30;101734.81;4106979;28;20069;-68
2023/04/20 09:09:53;;;;;;;;;;;;;;;8.29;80.38;101739.19;4107535;28;20023;-68
2023/04/20 09:12:05;;;;;;;;;;;;;;;8.30;80.29;101732.81;4091450;28;21004;-68
2023/04/20 09:14:11;;;;;;;;;;;;;;;8.29;80.36;101734.69;4107697;28;20021;-68
2023/04/20 09:16:16;;;;;;;;;;;;;;;8.30;80.61;101739.06;4107116;28;20021;-68
2023/04/20 09:18:20;;;;;;;;;;;;;;;8.34;80.85;101730.69;4104619;28;20029;-68
2023/04/20 09:20:29;;;;;;;;;;;;;;;8.34;81.58;101744.16;4106707;28;20034;-68
2023/04/20 09:22:31;;;;;;;;;;;;;;;8.34;81.55;101733.41;4106516;28;20037;-68
2023/04/20 09:24:41;;;;;;;;;;;;;;;8.34;81.35;101736.97;4088752;29;20103;-68
2023/04/20 09:26:43;;;;;;;;;;;;;;;8.35;81.46;101741.34;4104032;28;20025;-68
2023/04/20 09:28:45;;;;;;;;;;;;;;;8.38;81.72;101737.53;4105775;28;20021;-68
2023/04/20 09:30:47;;;;;;;;;;;;;;;8.39;81.68;101737.38;4105513;28;20657;-68
2023/04/20 09:32:49;;;;;;;;;;;;;;;8.41;82.14;101731.88;4106578;28;20016;-68
2023/04/20 09:34:53;;;;;;;;;;;;;;;8.44;81.65;101729.78;4088979;28;20025;-68
2023/04/20 09:36:56;;;;;;;;;;;;;;;8.47;82.23;101728.66;4107355;28;20025;-68
2023/04/20 09:39:02;;;;;;;;;;;;;;;8.51;82.03;101727.41;4106925;28;20016;-68
2023/04/20 09:41:04;;;;;;;;;;;;;;;8.53;82.01;101722.72;4105118;28;19926;-68
2023/04/20 09:43:08;;;;;;;;;;;;;;;8.56;81.31;101724.28;4106074;28;20025;-68
2023/04/20 09:45:10;;;;;;;;;;;;;;;8.58;81.03;101720.44;4107328;28;20029;-68
2023/04/20 09:47:15;;;;;;;;;;;;;;;8.60;80.78;101721.16;4106737;28;20024;-68
2023/04/20 09:49:17;;;;;;;;;;;;;;;8.62;80.43;101715.63;4102647;28;20054;-68
2023/04/20 09:51:20;;;;;;;;;;;;;;;8.65;79.66;101712.66;4073334;29;20013;-68
2023/04/20 09:53:22;;;;;;;;;;;;;;;8.68;79.56;101703.44;4104257;28;20021;-68
2023/04/20 09:55:25;;;;;;;;;;;;;;;8.72;78.90;101707.56;4105833;28;20357;-68
2023/04/20 09:57:27;;;;;;;;;;;;;;;8.72;78.51;101708.41;4105573;28;20001;-68
2023/04/20 09:59:29;;;;;;;;;;;;;;;8.74;77.79;101692.09;4106568;28;20576;-68
2023/04/20 10:01:32;;;;;;;;;;;;;;;8.77;77.14;101706.13;4106534;28;19942;-68
2023/04/20 10:03:34;;;;;;;;;;;;;;;8.80;76.21;101696.94;4106108;28;20016;-68
2023/04/20 10:05:38;;;;;;;;;;;;;;;8.84;75.33;101698.34;4106498;28;20029;-68
2023/04/20 10:07:41;;;;;;;;;;;;;;;8.89;75.58;101706.84;4106437;28;20025;-68
2023/04/20 10:09:43;;;;;;;;;;;;;;;8.91;74.89;101701.31;4106541;28;20021;-68
2023/04/20 10:11:45;;;;;;;;;;;;;;;8.96;75.20;101699.88;4105500;28;20061;-68
2023/04/20 10:13:47;;;;;;;;;;;;;;;9.02;77.02;101695.78;4106639;28;20028;-68
2023/04/20 10:15:49;;;;;;;;;;;;;;;9.04;76.19;101698.34;4104703;28;20009;-68
2023/04/20 10:17:52;;;;;;;;;;;;;;;9.04;75.31;101703.72;4103646;28;20025;-68
2023/04/20 10:19:54;;;;;;;;;;;;;;;9.05;75.00;101705.44;4087812;29;20021;-68
2023/04/20 10:21:56;;;;;;;;;;;;;;;9.06;75.03;101708.00;4104496;28;19933;-68
2023/04/20 10:24:01;;;;;;;;;;;;;;;9.09;75.11;101698.75;4106267;28;20038;-68
2023/04/20 10:26:04;;;;;;;;;;;;;;;9.11;75.33;101700.31;4105801;28;20025;-68
2023/04/20 10:28:08;;;;;;;;;;;;;;;9.12;75.33;101704.72;4106369;28;20368;-68
2023/04/20 10:30:10;;;;;;;;;;;;;;;9.14;74.71;101708.13;4105814;28;20453;-68
2023/04/20 10:32:21;;;;;;;;;;;;;;;9.17;74.51;101706.97;4105449;28;20022;-68
2023/04/20 10:34:29;;;;;;;;;;;;;;;9.18;74.90;101701.44;4103246;28;20352;-68
2023/04/20 10:36:32;;;;;;;;;;;;;;;9.20;74.59;101698.59;4105268;28;20373;-67
2023/04/20 10:38:35;;;;;;;;;;;;;;;9.23;74.37;101700.97;4103261;28;20572;-68
2023/04/20 10:40:39;;;;;;;;;;;;;;;9.25;74.11;101693.63;4104844;28;20468;-68
2023/04/20 10:42:44;;;;;;;;;;;;;;;9.27;74.07;101701.56;4072413;29;19934;-68
2023/04/20 10:44:49;;;;;;;;;;;;;;;9.28;74.83;101687.06;4105602;28;20021;-68
2023/04/20 10:46:54;;;;;;;;;;;;;;;9.28;75.34;101681.69;4106370;28;20037;-68
2023/04/20 10:48:56;;;;;;;;;;;;;;;9.27;74.43;101677.31;4103518;28;20021;-68